createdAt,value
2017-05-28T00:01:07.615Z,12
2017-05-28T00:02:19.540Z,12
2017-05-28T00:03:31.470Z,12
2017-05-28T00:04:43.886Z,12
2017-05-28T00:05:56.858Z,12
2017-05-28T00:07:09.276Z,12
2017-05-28T00:08:22.378Z,12
2017-05-28T00:09:34.805Z,12
2017-05-28T00:10:47.707Z,12
2017-05-28T00:12:00.613Z,12
2017-05-28T00:13:13.769Z,12
2017-05-28T00:14:26.672Z,8
2017-05-28T00:15:39.642Z,12
2017-05-28T00:16:52.538Z,12
2017-05-28T00:18:05.438Z,12
2017-05-28T00:19:17.861Z,12
2017-05-28T00:20:30.767Z,12
2017-05-28T00:21:43.193Z,12
2017-05-28T00:22:56.098Z,12
2017-05-28T00:24:08.714Z,12
2017-05-28T00:25:21.126Z,12
2017-05-28T00:26:33.545Z,12
2017-05-28T00:27:45.466Z,8
2017-05-28T00:28:58.376Z,12
2017-05-28T00:30:11.283Z,12
2017-05-28T00:31:23.701Z,12
2017-05-28T00:32:36.599Z,12
2017-05-28T00:33:49.018Z,12
2017-05-28T00:35:01.917Z,12
2017-05-28T00:36:14.824Z,12
2017-05-28T00:37:27.725Z,12
2017-05-28T00:38:40.629Z,12
2017-05-28T00:39:53.054Z,12
2017-05-28T00:41:05.670Z,12
2017-05-28T00:42:17.594Z,12
2017-05-28T00:43:30.011Z,8
2017-05-28T00:44:42.916Z,12
2017-05-28T00:45:55.826Z,12
2017-05-28T00:47:08.235Z,4
2017-05-28T00:48:20.645Z,16
2017-05-28T00:49:33.549Z,12
2017-05-28T00:50:45.471Z,12
2017-05-28T00:51:58.372Z,12
2017-05-28T00:53:11.283Z,12
2017-05-28T00:54:24.194Z,12
2017-05-28T00:55:37.108Z,12
2017-05-28T00:56:49.229Z,12
2017-05-28T00:58:02.136Z,12
2017-05-28T00:59:15.045Z,12
2017-05-28T01:00:27.945Z,12
2017-05-28T01:01:40.849Z,12
2017-05-28T01:02:53.259Z,12
2017-05-28T01:04:06.174Z,12
2017-05-28T01:05:19.077Z,12
2017-05-28T01:06:32.029Z,12
2017-05-28T01:07:44.944Z,12
2017-05-28T01:08:57.844Z,12
2017-05-28T01:10:09.770Z,12
2017-05-28T01:11:22.183Z,12
2017-05-28T01:12:35.102Z,12
2017-05-28T01:13:47.723Z,12
2017-05-28T01:15:00.139Z,12
2017-05-28T01:16:12.547Z,12
2017-05-28T01:17:24.470Z,12
2017-05-28T01:18:37.377Z,12
2017-05-28T01:19:50.281Z,12
2017-05-28T01:21:03.193Z,12
2017-05-28T01:22:16.097Z,12
2017-05-28T01:23:29.029Z,12
2017-05-28T01:24:41.956Z,12
2017-05-28T01:25:54.880Z,12
2017-05-28T01:27:07.858Z,12
2017-05-28T01:28:19.796Z,12
2017-05-28T01:29:32.723Z,12
2017-05-28T01:30:45.739Z,12
2017-05-28T01:31:58.798Z,12
2017-05-28T01:33:10.379Z,12
2017-05-28T01:34:22.942Z,12
2017-05-28T01:35:36.223Z,12
2017-05-28T01:36:48.787Z,12
2017-05-28T01:38:01.849Z,12
2017-05-28T01:39:14.911Z,12
2017-05-28T01:40:27.971Z,12
2017-05-28T01:41:41.072Z,12
2017-05-28T01:42:53.133Z,12
2017-05-28T01:44:05.692Z,12
2017-05-28T01:45:17.755Z,12
2017-05-28T01:46:30.328Z,12
2017-05-28T01:47:42.888Z,12
2017-05-28T01:48:55.461Z,12
2017-05-28T01:50:08.519Z,12
2017-05-28T01:51:21.777Z,12
2017-05-28T01:52:33.839Z,12
2017-05-28T01:53:46.905Z,12
2017-05-28T01:54:59.467Z,12
2017-05-28T01:56:12.526Z,12
2017-05-28T01:57:25.096Z,12
2017-05-28T01:58:37.657Z,12
2017-05-28T01:59:50.717Z,12
2017-05-28T02:01:03.280Z,12
2017-05-28T02:02:16.341Z,12
2017-05-28T02:03:28.910Z,12
2017-05-28T02:04:41.476Z,12
2017-05-28T02:05:54.041Z,12
2017-05-28T02:07:07.108Z,12
2017-05-28T02:08:19.870Z,12
2017-05-28T02:09:32.931Z,12
2017-05-28T02:10:45.995Z,12
2017-05-28T02:11:58.555Z,12
2017-05-28T02:13:11.815Z,12
2017-05-28T02:14:24.879Z,12
2017-05-28T02:15:37.941Z,12
2017-05-28T02:16:51.005Z,4
2017-05-28T02:18:04.071Z,12
2017-05-28T02:19:15.630Z,12
2017-05-28T02:20:28.693Z,12
2017-05-28T02:21:41.750Z,12
2017-05-28T02:22:54.814Z,12
2017-05-28T02:24:07.625Z,12
2017-05-28T02:25:19.682Z,12
2017-05-28T02:26:32.242Z,12
2017-05-28T02:27:45.212Z,12
2017-05-28T02:28:58.142Z,12
2017-05-28T02:30:11.065Z,8
2017-05-28T02:31:23.987Z,12
2017-05-28T02:32:36.909Z,12
2017-05-28T02:33:49.827Z,8
2017-05-28T02:35:02.751Z,12
2017-05-28T02:36:15.181Z,12
2017-05-28T02:37:28.105Z,12
2017-05-28T02:38:40.530Z,12
2017-05-28T02:39:52.958Z,12
2017-05-28T02:41:05.590Z,12
2017-05-28T02:42:18.018Z,12
2017-05-28T02:43:30.945Z,12
2017-05-28T02:44:43.865Z,12
2017-05-28T02:45:56.512Z,12
2017-05-28T02:47:09.432Z,12
2017-05-28T02:48:20.879Z,12
2017-05-28T02:49:32.835Z,12
2017-05-28T02:50:45.265Z,12
2017-05-28T02:51:57.404Z,12
2017-05-28T02:53:10.311Z,12
2017-05-28T02:54:23.222Z,12
2017-05-28T02:55:36.140Z,12
2017-05-28T02:56:49.040Z,12
2017-05-28T02:58:01.451Z,12
2017-05-28T02:59:13.862Z,12
2017-05-28T03:00:26.774Z,12
2017-05-28T03:01:39.181Z,12
2017-05-28T03:02:51.801Z,12
2017-05-28T03:04:04.761Z,12
2017-05-28T03:05:17.244Z,12
2017-05-28T03:06:29.799Z,12
2017-05-28T03:07:41.795Z,12
2017-05-28T03:08:53.791Z,12
2017-05-28T03:10:06.280Z,12
2017-05-28T03:11:19.264Z,12
2017-05-28T03:12:31.759Z,12
2017-05-28T03:13:44.944Z,12
2017-05-28T03:14:56.941Z,12
2017-05-28T03:16:08.933Z,12
2017-05-28T03:17:21.918Z,12
2017-05-28T03:18:34.909Z,12
2017-05-28T03:19:47.889Z,4
2017-05-28T03:20:59.886Z,4
2017-05-28T03:22:11.385Z,4
2017-05-28T03:23:23.873Z,16
2017-05-28T03:24:36.364Z,12
2017-05-28T03:25:49.353Z,12
2017-05-28T03:27:02.334Z,4
2017-05-28T03:28:14.330Z,4
2017-05-28T03:29:27.026Z,16
2017-05-28T03:30:39.022Z,16
2017-05-28T03:31:52.006Z,12
2017-05-28T03:33:04.993Z,12
2017-05-28T03:34:17.489Z,12
2017-05-28T03:35:30.470Z,12
2017-05-28T03:36:43.454Z,12
2017-05-28T03:37:56.351Z,12
2017-05-28T03:39:08.241Z,12
2017-05-28T03:40:21.252Z,12
2017-05-28T03:41:34.033Z,12
2017-05-28T03:42:46.818Z,12
2017-05-28T03:43:59.601Z,12
2017-05-28T03:45:12.382Z,12
2017-05-28T03:46:24.881Z,12
2017-05-28T03:47:37.662Z,12
2017-05-28T03:48:50.445Z,12
2017-05-28T03:50:02.264Z,12
2017-05-28T03:51:15.046Z,12
2017-05-28T03:52:27.839Z,12
2017-05-28T03:53:40.621Z,12
2017-05-28T03:54:53.402Z,12
2017-05-28T03:56:06.239Z,12
2017-05-28T03:57:18.540Z,12
2017-05-28T03:58:30.846Z,12
2017-05-28T03:59:43.152Z,12
2017-05-28T04:00:55.458Z,12
2017-05-28T04:02:08.240Z,12
2017-05-28T04:03:20.064Z,12
2017-05-28T04:04:32.863Z,12
2017-05-28T04:05:45.163Z,12
2017-05-28T04:06:57.465Z,12
2017-05-28T04:08:09.965Z,12
2017-05-28T04:09:22.268Z,12
2017-05-28T04:10:34.583Z,12
2017-05-28T04:11:47.375Z,12
2017-05-28T04:12:59.876Z,12
2017-05-28T04:14:12.663Z,12
2017-05-28T04:15:25.445Z,12
2017-05-28T04:16:38.229Z,12
2017-05-28T04:17:50.534Z,12
2017-05-28T04:19:03.317Z,12
2017-05-28T04:20:16.105Z,12
2017-05-28T04:21:28.404Z,12
2017-05-28T04:22:41.200Z,12
2017-05-28T04:23:53.505Z,12
2017-05-28T04:25:06.292Z,12
2017-05-28T04:26:18.591Z,12
2017-05-28T04:27:30.891Z,12
2017-05-28T04:28:43.206Z,12
2017-05-28T04:29:55.714Z,8
2017-05-28T04:31:08.019Z,12
2017-05-28T04:32:20.801Z,12
2017-05-28T04:33:33.603Z,12
2017-05-28T04:34:45.438Z,12
2017-05-28T04:35:57.742Z,12
2017-05-28T04:37:10.042Z,12
2017-05-28T04:38:22.364Z,12
2017-05-28T04:39:35.161Z,12
2017-05-28T04:40:47.467Z,12
2017-05-28T04:41:59.290Z,12
2017-05-28T04:43:11.599Z,12
2017-05-28T04:44:23.911Z,12
2017-05-28T04:45:36.701Z,12
2017-05-28T04:46:49.482Z,12
2017-05-28T04:48:02.272Z,12
2017-05-28T04:49:15.066Z,12
2017-05-28T04:50:27.853Z,12
2017-05-28T04:51:39.871Z,12
2017-05-28T04:52:52.656Z,12
2017-05-28T04:54:05.449Z,12
2017-05-28T04:55:17.758Z,12
2017-05-28T04:56:30.062Z,12
2017-05-28T04:57:42.364Z,12
2017-05-28T04:58:55.156Z,12
2017-05-28T05:00:07.470Z,12
2017-05-28T05:01:19.776Z,12
2017-05-28T05:02:32.293Z,12
2017-05-28T05:03:45.088Z,12
2017-05-28T05:04:57.403Z,8
2017-05-28T05:06:09.225Z,12
2017-05-28T05:07:22.096Z,12
2017-05-28T05:08:34.997Z,12
2017-05-28T05:09:47.903Z,12
2017-05-28T05:11:00.314Z,12
2017-05-28T05:12:13.215Z,12
2017-05-28T05:13:26.125Z,12
2017-05-28T05:14:39.025Z,12
2017-05-28T05:15:51.443Z,12
2017-05-28T05:17:04.340Z,12
2017-05-28T05:18:16.461Z,8
2017-05-28T05:19:28.874Z,12
2017-05-28T05:20:41.777Z,12
2017-05-28T05:21:54.191Z,12
2017-05-28T05:23:06.605Z,12
2017-05-28T05:24:18.528Z,12
2017-05-28T05:25:30.447Z,12
2017-05-28T05:26:42.859Z,12
2017-05-28T05:27:55.762Z,12
2017-05-28T05:29:07.896Z,12
2017-05-28T05:30:19.822Z,12
2017-05-28T05:31:32.724Z,12
2017-05-28T05:32:45.628Z,12
2017-05-28T05:33:58.048Z,12
2017-05-28T05:35:11.151Z,12
2017-05-28T05:36:24.053Z,12
2017-05-28T05:37:36.464Z,12
2017-05-28T05:38:49.377Z,12
2017-05-28T05:40:02.480Z,12
2017-05-28T05:41:14.891Z,12
2017-05-28T05:42:26.813Z,12
2017-05-28T05:43:39.716Z,12
2017-05-28T05:44:52.623Z,12
2017-05-28T05:46:05.531Z,12
2017-05-28T05:47:18.436Z,12
2017-05-28T05:48:30.850Z,12
2017-05-28T05:49:43.758Z,12
2017-05-28T05:50:56.663Z,12
2017-05-28T05:52:09.080Z,8
2017-05-28T05:53:21.872Z,12
2017-05-28T05:54:34.654Z,8
2017-05-28T05:55:46.953Z,12
2017-05-28T05:56:59.451Z,12
2017-05-28T05:58:11.755Z,12
2017-05-28T05:59:23.577Z,12
2017-05-28T06:00:36.356Z,12
2017-05-28T06:01:49.140Z,8
2017-05-28T06:03:01.932Z,12
2017-05-28T06:04:14.229Z,12
2017-05-28T06:05:27.010Z,12
2017-05-28T06:06:39.313Z,12
2017-05-28T06:07:51.611Z,12
2017-05-28T06:09:03.912Z,12
2017-05-28T06:10:16.698Z,12
2017-05-28T06:11:29.483Z,12
2017-05-28T06:12:41.984Z,12
2017-05-28T06:13:54.765Z,12
2017-05-28T06:15:07.068Z,12
2017-05-28T06:16:19.374Z,12
2017-05-28T06:17:32.159Z,12
2017-05-28T06:18:44.947Z,12
2017-05-28T06:19:57.795Z,12
2017-05-28T06:21:10.575Z,12
2017-05-28T06:22:23.369Z,12
2017-05-28T06:23:35.870Z,12
2017-05-28T06:24:47.710Z,12
2017-05-28T06:26:00.489Z,12
2017-05-28T06:27:13.270Z,12
2017-05-28T06:28:25.575Z,12
2017-05-28T06:29:38.369Z,12
2017-05-28T06:30:51.155Z,12
2017-05-28T06:32:03.935Z,12
2017-05-28T06:33:16.239Z,8
2017-05-28T06:34:29.234Z,12
2017-05-28T06:35:41.537Z,12
2017-05-28T06:36:53.835Z,12
2017-05-28T06:38:06.705Z,12
2017-05-28T06:39:19.607Z,12
2017-05-28T06:40:32.706Z,12
2017-05-28T06:41:45.116Z,12
2017-05-28T06:42:57.530Z,12
2017-05-28T06:44:10.438Z,12
2017-05-28T06:45:23.341Z,4
2017-05-28T06:46:35.748Z,4
2017-05-28T06:47:48.646Z,16
2017-05-28T06:49:01.548Z,12
2017-05-28T06:50:13.470Z,12
2017-05-28T06:51:25.593Z,12
2017-05-28T06:52:38.491Z,12
2017-05-28T06:53:51.395Z,12
2017-05-28T06:55:03.858Z,12
2017-05-28T06:56:15.991Z,12
2017-05-28T06:57:28.895Z,12
2017-05-28T06:58:41.800Z,12
2017-05-28T06:59:54.702Z,12
2017-05-28T07:01:07.611Z,12
2017-05-28T07:02:20.229Z,12
2017-05-28T07:03:33.140Z,12
2017-05-28T07:04:45.557Z,12
2017-05-28T07:05:57.965Z,12
2017-05-28T07:07:09.890Z,12
2017-05-28T07:08:22.302Z,4
2017-05-28T07:09:35.209Z,4
2017-05-28T07:10:48.114Z,16
2017-05-28T07:12:01.011Z,12
2017-05-28T07:13:13.928Z,12
2017-05-28T07:14:26.346Z,12
2017-05-28T07:15:39.247Z,12
2017-05-28T07:16:51.670Z,12
2017-05-28T07:18:04.780Z,12
2017-05-28T07:19:17.198Z,12
2017-05-28T07:20:29.117Z,12
2017-05-28T07:21:42.017Z,12
2017-05-28T07:22:54.916Z,8
2017-05-28T07:24:08.014Z,12
2017-05-28T07:25:20.429Z,12
2017-05-28T07:26:33.333Z,12
2017-05-28T07:27:46.244Z,12
2017-05-28T07:28:58.662Z,12
2017-05-28T07:30:11.559Z,12
2017-05-28T07:31:24.459Z,12
2017-05-28T07:32:36.865Z,12
2017-05-28T07:33:49.284Z,12
2017-05-28T07:35:02.390Z,12
2017-05-28T07:36:15.294Z,12
2017-05-28T07:37:28.195Z,12
2017-05-28T07:38:40.614Z,12
2017-05-28T07:39:53.227Z,12
2017-05-28T07:41:05.148Z,12
2017-05-28T07:42:18.046Z,12
2017-05-28T07:43:30.476Z,12
2017-05-28T07:44:42.884Z,12
2017-05-28T07:45:55.299Z,12
2017-05-28T07:47:07.713Z,12
2017-05-28T07:48:19.637Z,12
2017-05-28T07:49:32.536Z,12
2017-05-28T07:50:45.437Z,8
2017-05-28T07:51:58.335Z,12
2017-05-28T07:53:10.754Z,12
2017-05-28T07:54:23.724Z,12
2017-05-28T07:55:36.623Z,12
2017-05-28T07:56:49.231Z,12
2017-05-28T07:58:01.158Z,12
2017-05-28T07:59:13.573Z,12
2017-05-28T08:00:25.998Z,12
2017-05-28T08:01:38.611Z,4
2017-05-28T08:02:51.515Z,4
2017-05-28T08:04:03.500Z,16
2017-05-28T08:05:15.917Z,12
2017-05-28T08:06:28.823Z,12
2017-05-28T08:07:41.919Z,12
2017-05-28T08:08:54.333Z,12
2017-05-28T08:10:06.744Z,12
2017-05-28T08:11:18.669Z,12
2017-05-28T08:12:31.567Z,12
2017-05-28T08:13:43.986Z,12
2017-05-28T08:14:56.402Z,12
2017-05-28T08:16:08.814Z,12
2017-05-28T08:17:21.222Z,12
2017-05-28T08:18:33.631Z,12
2017-05-28T08:19:46.045Z,12
2017-05-28T08:20:58.941Z,12
2017-05-28T08:22:11.847Z,12
2017-05-28T08:23:24.260Z,12
2017-05-28T08:24:37.158Z,8
2017-05-28T08:25:50.057Z,12
2017-05-28T08:27:02.469Z,12
2017-05-28T08:28:14.886Z,12
2017-05-28T08:29:27.536Z,12
2017-05-28T08:30:40.519Z,8
2017-05-28T08:31:53.012Z,12
2017-05-28T08:33:05.997Z,12
2017-05-28T08:34:18.988Z,12
2017-05-28T08:35:31.477Z,12
2017-05-28T08:36:44.460Z,12
2017-05-28T08:37:57.443Z,12
2017-05-28T08:39:10.629Z,12
2017-05-28T08:40:23.127Z,12
2017-05-28T08:41:36.111Z,12
2017-05-28T08:42:49.098Z,12
2017-05-28T08:44:02.094Z,12
2017-05-28T08:45:15.075Z,12
2017-05-28T08:46:28.058Z,12
2017-05-28T08:47:40.546Z,12
2017-05-28T08:48:53.530Z,12
2017-05-28T08:50:06.024Z,12
2017-05-28T08:51:18.716Z,12
2017-05-28T08:52:31.708Z,12
2017-05-28T08:53:44.713Z,12
2017-05-28T08:54:57.217Z,12
2017-05-28T08:56:10.416Z,12
2017-05-28T08:57:23.413Z,12
2017-05-28T08:58:35.917Z,12
2017-05-28T08:59:48.424Z,12
2017-05-28T09:01:01.438Z,12
2017-05-28T09:02:14.637Z,12
2017-05-28T09:03:27.140Z,12
2017-05-28T09:04:40.140Z,12
2017-05-28T09:05:53.152Z,4
2017-05-28T09:07:05.163Z,4
2017-05-28T09:08:17.669Z,12
2017-05-28T09:09:30.678Z,16
2017-05-28T09:10:43.181Z,12
2017-05-28T09:11:56.182Z,12
2017-05-28T09:13:08.884Z,12
2017-05-28T09:14:21.894Z,12
2017-05-28T09:15:34.893Z,12
2017-05-28T09:16:47.891Z,12
2017-05-28T09:18:00.593Z,12
2017-05-28T09:19:13.095Z,12
2017-05-28T09:20:26.111Z,12
2017-05-28T09:21:39.111Z,12
2017-05-28T09:22:51.635Z,12
2017-05-28T09:24:04.343Z,12
2017-05-28T09:25:16.848Z,12
2017-05-28T09:26:29.357Z,12
2017-05-28T09:27:42.358Z,12
2017-05-28T09:28:55.437Z,16
2017-05-28T09:30:07.938Z,12
2017-05-28T09:31:20.443Z,16
2017-05-28T09:32:32.944Z,12
2017-05-28T09:33:45.953Z,12
2017-05-28T09:34:58.708Z,16
2017-05-28T09:36:11.211Z,16
2017-05-28T09:37:23.615Z,12
2017-05-28T09:38:36.482Z,12
2017-05-28T09:39:49.352Z,16
2017-05-28T09:41:02.217Z,16
2017-05-28T09:42:14.591Z,12
2017-05-28T09:43:27.405Z,12
2017-05-28T09:44:40.190Z,16
2017-05-28T09:45:52.692Z,16
2017-05-28T09:47:04.994Z,16
2017-05-28T09:48:16.816Z,16
2017-05-28T09:49:29.597Z,16
2017-05-28T09:50:42.377Z,16
2017-05-28T09:51:54.192Z,20
2017-05-28T09:53:06.496Z,20
2017-05-28T09:54:18.799Z,20
2017-05-28T09:55:31.579Z,24
2017-05-28T09:56:44.570Z,20
2017-05-28T09:57:57.351Z,20
2017-05-28T09:59:10.131Z,20
2017-05-28T10:00:22.916Z,24
2017-05-28T10:01:35.703Z,28
2017-05-28T10:02:48.484Z,12
2017-05-28T10:04:00.369Z,16
2017-05-28T10:05:13.152Z,16
2017-05-28T10:06:25.451Z,16
2017-05-28T10:07:38.443Z,20
2017-05-28T10:08:51.230Z,20
2017-05-28T10:10:03.053Z,20
2017-05-28T10:11:15.835Z,20
2017-05-28T10:12:28.622Z,20
2017-05-28T10:13:41.413Z,24
2017-05-28T10:14:54.197Z,28
2017-05-28T10:16:06.982Z,24
2017-05-28T10:17:19.286Z,28
2017-05-28T10:18:32.334Z,28
2017-05-28T10:19:44.637Z,32
2017-05-28T10:20:57.419Z,36
2017-05-28T10:22:09.720Z,36
2017-05-28T10:23:22.232Z,40
2017-05-28T10:24:34.538Z,40
2017-05-28T10:25:47.317Z,40
2017-05-28T10:26:59.136Z,44
2017-05-28T10:28:11.918Z,44
2017-05-28T10:29:24.230Z,44
2017-05-28T10:30:37.012Z,48
2017-05-28T10:31:49.795Z,48
2017-05-28T10:33:02.573Z,48
2017-05-28T10:34:15.075Z,48
2017-05-28T10:35:27.377Z,52
2017-05-28T10:36:39.198Z,52
2017-05-28T10:37:51.014Z,56
2017-05-28T10:39:03.327Z,60
2017-05-28T10:40:16.307Z,60
2017-05-28T10:41:27.654Z,60
2017-05-28T10:42:39.961Z,64
2017-05-28T10:43:52.265Z,68
2017-05-28T10:45:04.564Z,68
2017-05-28T10:46:16.582Z,76
2017-05-28T10:47:28.401Z,76
2017-05-28T10:48:41.191Z,76
2017-05-28T10:49:53.010Z,76
2017-05-28T10:51:05.312Z,80
2017-05-28T10:52:18.293Z,88
2017-05-28T10:53:31.079Z,92
2017-05-28T10:54:42.897Z,92
2017-05-28T10:55:55.680Z,92
2017-05-28T10:57:08.462Z,88
2017-05-28T10:58:21.248Z,92
2017-05-28T10:59:34.040Z,96
2017-05-28T11:00:46.827Z,96
2017-05-28T11:01:59.127Z,100
2017-05-28T11:03:12.112Z,112
2017-05-28T11:04:23.453Z,120
2017-05-28T11:05:36.240Z,136
2017-05-28T11:06:49.027Z,148
2017-05-28T11:08:01.899Z,156
2017-05-28T11:09:14.802Z,168
2017-05-28T11:10:27.698Z,176
2017-05-28T11:11:40.112Z,188
2017-05-28T11:12:52.528Z,196
2017-05-28T11:14:04.448Z,204
2017-05-28T11:15:17.347Z,204
2017-05-28T11:16:29.769Z,208
2017-05-28T11:17:42.685Z,208
2017-05-28T11:18:55.585Z,212
2017-05-28T11:20:08.192Z,224
2017-05-28T11:21:20.115Z,232
2017-05-28T11:22:33.020Z,240
2017-05-28T11:23:45.922Z,244
2017-05-28T11:24:58.333Z,252
2017-05-28T11:26:10.753Z,264
2017-05-28T11:27:23.652Z,280
2017-05-28T11:28:36.061Z,292
2017-05-28T11:29:48.961Z,304
2017-05-28T11:31:01.580Z,308
2017-05-28T11:32:14.489Z,324
2017-05-28T11:33:26.414Z,344
2017-05-28T11:34:39.322Z,356
2017-05-28T11:35:51.799Z,364
2017-05-28T11:37:04.698Z,376
2017-05-28T11:38:17.105Z,388
2017-05-28T11:39:29.513Z,396
2017-05-28T11:40:41.921Z,376
2017-05-28T11:41:55.023Z,352
2017-05-28T11:43:07.921Z,340
2017-05-28T11:44:20.335Z,316
2017-05-28T11:45:32.250Z,300
2017-05-28T11:46:44.661Z,304
2017-05-28T11:47:57.563Z,304
2017-05-28T11:49:09.972Z,312
2017-05-28T11:50:22.869Z,304
2017-05-28T11:51:35.769Z,280
2017-05-28T11:52:48.690Z,244
2017-05-28T11:54:01.612Z,228
2017-05-28T11:55:14.537Z,224
2017-05-28T11:56:25.982Z,240
2017-05-28T11:57:38.466Z,260
2017-05-28T11:58:50.895Z,288
2017-05-28T12:00:03.870Z,284
2017-05-28T12:01:16.798Z,264
2017-05-28T12:02:29.227Z,252
2017-05-28T12:03:41.859Z,248
2017-05-28T12:04:54.782Z,252
2017-05-28T12:06:07.215Z,276
2017-05-28T12:07:20.139Z,328
2017-05-28T12:08:33.057Z,352
2017-05-28T12:09:45.976Z,360
2017-05-28T12:10:58.893Z,380
2017-05-28T12:12:11.321Z,384
2017-05-28T12:13:24.248Z,384
2017-05-28T12:14:37.380Z,424
2017-05-28T12:15:50.302Z,484
2017-05-28T12:17:02.730Z,484
2017-05-28T12:18:15.162Z,508
2017-05-28T12:19:27.595Z,492
2017-05-28T12:20:40.023Z,440
2017-05-28T12:21:52.948Z,408
2017-05-28T12:23:05.885Z,440
2017-05-28T12:24:17.890Z,532
2017-05-28T12:25:30.026Z,568
2017-05-28T12:26:42.506Z,568
2017-05-28T12:27:55.419Z,604
2017-05-28T12:29:07.855Z,560
2017-05-28T12:30:20.482Z,484
2017-05-28T12:31:33.412Z,416
2017-05-28T12:32:46.341Z,312
2017-05-28T12:33:59.261Z,272
2017-05-28T12:35:11.690Z,252
2017-05-28T12:36:24.612Z,240
2017-05-28T12:37:37.532Z,244
2017-05-28T12:38:49.963Z,256
2017-05-28T12:40:01.903Z,264
2017-05-28T12:41:14.041Z,300
2017-05-28T12:42:26.970Z,272
2017-05-28T12:43:39.942Z,304
2017-05-28T12:44:52.949Z,348
2017-05-28T12:46:05.948Z,384
2017-05-28T12:47:18.461Z,400
2017-05-28T12:48:31.461Z,432
2017-05-28T12:49:44.460Z,460
2017-05-28T12:50:57.460Z,460
2017-05-28T12:52:10.463Z,432
2017-05-28T12:53:22.968Z,396
2017-05-28T12:54:35.978Z,436
2017-05-28T12:55:48.978Z,452
2017-05-28T12:57:02.189Z,476
2017-05-28T12:58:15.185Z,484
2017-05-28T12:59:27.693Z,496
2017-05-28T13:00:39.701Z,480
2017-05-28T13:01:52.704Z,472
2017-05-28T13:03:05.915Z,464
2017-05-28T13:04:18.425Z,464
2017-05-28T13:05:30.982Z,452
2017-05-28T13:06:43.983Z,436
2017-05-28T13:07:57.185Z,404
2017-05-28T13:09:09.709Z,396
2017-05-28T13:10:22.710Z,388
2017-05-28T13:11:35.219Z,372
2017-05-28T13:12:48.222Z,360
2017-05-28T13:14:01.424Z,336
2017-05-28T13:15:14.419Z,308
2017-05-28T13:16:26.993Z,288
2017-05-28T13:17:39.999Z,288
2017-05-28T13:18:52.504Z,292
2017-05-28T13:20:05.008Z,304
2017-05-28T13:21:17.081Z,304
2017-05-28T13:22:29.584Z,308
2017-05-28T13:23:42.089Z,312
2017-05-28T13:24:55.292Z,340
2017-05-28T13:26:07.801Z,368
2017-05-28T13:27:20.303Z,384
2017-05-28T13:28:33.312Z,400
2017-05-28T13:29:46.311Z,404
2017-05-28T13:30:59.518Z,408
2017-05-28T13:32:12.023Z,396
2017-05-28T13:33:24.531Z,376
2017-05-28T13:34:37.530Z,416
2017-05-28T13:35:50.537Z,388
2017-05-28T13:37:03.534Z,348
2017-05-28T13:38:16.534Z,424
2017-05-28T13:39:29.542Z,512
2017-05-28T13:40:42.544Z,532
2017-05-28T13:41:55.541Z,560
2017-05-28T13:43:08.545Z,560
2017-05-28T13:44:21.542Z,560
2017-05-28T13:45:34.550Z,536
2017-05-28T13:46:47.549Z,528
2017-05-28T13:48:00.557Z,488
2017-05-28T13:49:12.564Z,404
2017-05-28T13:50:24.574Z,356
2017-05-28T13:51:37.572Z,384
2017-05-28T13:52:50.778Z,388
2017-05-28T13:54:03.282Z,384
2017-05-28T13:55:15.788Z,396
2017-05-28T13:56:28.787Z,416
2017-05-28T13:57:41.294Z,392
2017-05-28T13:58:53.308Z,356
2017-05-28T14:00:06.319Z,376
2017-05-28T14:01:18.330Z,372
2017-05-28T14:02:30.339Z,396
2017-05-28T14:03:43.343Z,444
2017-05-28T14:04:55.853Z,472
2017-05-28T14:06:08.360Z,508
2017-05-28T14:07:21.269Z,528
2017-05-28T14:08:33.656Z,544
2017-05-28T14:09:46.530Z,548
2017-05-28T14:10:58.928Z,540
2017-05-28T14:12:11.800Z,556
2017-05-28T14:13:24.191Z,584
2017-05-28T14:14:37.272Z,556
2017-05-28T14:15:50.142Z,544
2017-05-28T14:17:03.014Z,536
2017-05-28T14:18:15.884Z,528
2017-05-28T14:19:28.271Z,536
2017-05-28T14:20:41.147Z,564
2017-05-28T14:21:54.028Z,584
2017-05-28T14:23:06.904Z,556
2017-05-28T14:24:19.790Z,556
2017-05-28T14:25:32.181Z,568
2017-05-28T14:26:44.571Z,548
2017-05-28T14:27:57.444Z,548
2017-05-28T14:29:09.826Z,548
2017-05-28T14:30:22.902Z,552
2017-05-28T14:31:35.281Z,560
2017-05-28T14:32:48.122Z,564
2017-05-28T14:34:00.433Z,604
2017-05-28T14:35:13.221Z,628
2017-05-28T14:36:26.017Z,676
2017-05-28T14:37:38.322Z,680
2017-05-28T14:38:50.633Z,740
2017-05-28T14:40:03.427Z,712
2017-05-28T14:41:16.222Z,720
2017-05-28T14:42:29.021Z,768
2017-05-28T14:43:41.324Z,772
2017-05-28T14:44:54.115Z,780
2017-05-28T14:46:06.910Z,800
2017-05-28T14:47:18.937Z,772
2017-05-28T14:48:31.252Z,804
2017-05-28T14:49:43.568Z,756
2017-05-28T14:50:55.872Z,736
2017-05-28T14:52:08.664Z,724
2017-05-28T14:53:21.452Z,696
2017-05-28T14:54:33.760Z,668
2017-05-28T14:55:46.552Z,640
2017-05-28T14:56:59.339Z,616
2017-05-28T14:58:12.334Z,564
2017-05-28T14:59:24.209Z,520
2017-05-28T15:00:36.040Z,520
2017-05-28T15:01:48.357Z,524
2017-05-28T15:03:01.343Z,520
2017-05-28T15:04:13.646Z,504
2017-05-28T15:05:25.473Z,484
2017-05-28T15:06:37.781Z,480
2017-05-28T15:07:50.637Z,488
2017-05-28T15:09:03.506Z,472
2017-05-28T15:10:16.377Z,472
2017-05-28T15:11:28.281Z,456
2017-05-28T15:12:41.163Z,440
2017-05-28T15:13:54.044Z,420
2017-05-28T15:15:06.919Z,412
2017-05-28T15:16:19.306Z,408
2017-05-28T15:17:32.187Z,372
2017-05-28T15:18:44.571Z,448
2017-05-28T15:19:57.712Z,488
2017-05-28T15:21:10.594Z,484
2017-05-28T15:22:23.470Z,460
2017-05-28T15:23:35.383Z,448
2017-05-28T15:24:47.495Z,440
2017-05-28T15:26:00.370Z,408
2017-05-28T15:27:13.248Z,384
2017-05-28T15:28:25.642Z,368
2017-05-28T15:29:38.512Z,360
2017-05-28T15:30:51.376Z,352
2017-05-28T15:32:04.257Z,352
2017-05-28T15:33:16.642Z,348
2017-05-28T15:34:29.516Z,340
2017-05-28T15:35:41.416Z,336
2017-05-28T15:36:53.806Z,324
2017-05-28T15:38:06.205Z,328
2017-05-28T15:39:19.082Z,332
2017-05-28T15:40:31.474Z,320
2017-05-28T15:41:44.560Z,316
2017-05-28T15:42:56.950Z,320
2017-05-28T15:44:09.775Z,304
2017-05-28T15:45:22.560Z,284
2017-05-28T15:46:35.369Z,276
2017-05-28T15:47:48.162Z,264
2017-05-28T15:49:00.477Z,252
2017-05-28T15:50:13.265Z,244
2017-05-28T15:51:26.049Z,244
2017-05-28T15:52:38.558Z,244
2017-05-28T15:53:50.390Z,236
2017-05-28T15:55:01.735Z,228
2017-05-28T15:56:14.525Z,220
2017-05-28T15:57:26.836Z,216
2017-05-28T15:58:39.631Z,212
2017-05-28T15:59:52.422Z,212
2017-05-28T16:01:04.733Z,216
2017-05-28T16:02:16.560Z,216
2017-05-28T16:03:28.874Z,216
2017-05-28T16:04:41.180Z,192
2017-05-28T16:05:53.485Z,180
2017-05-28T16:07:05.786Z,184
2017-05-28T16:08:18.304Z,188
2017-05-28T16:09:31.093Z,200
2017-05-28T16:10:43.879Z,216
2017-05-28T16:11:56.190Z,216
2017-05-28T16:13:08.494Z,228
2017-05-28T16:14:20.809Z,232
2017-05-28T16:15:33.114Z,248
2017-05-28T16:16:45.901Z,264
2017-05-28T16:17:58.693Z,272
2017-05-28T16:19:10.248Z,276
2017-05-28T16:20:22.556Z,292
2017-05-28T16:21:35.339Z,320
2017-05-28T16:22:48.232Z,328
2017-05-28T16:24:01.162Z,336
2017-05-28T16:25:13.301Z,340
2017-05-28T16:26:26.223Z,352
2017-05-28T16:27:39.175Z,356
2017-05-28T16:28:52.100Z,356
2017-05-28T16:30:04.736Z,352
2017-05-28T16:31:16.676Z,352
2017-05-28T16:32:29.108Z,336
2017-05-28T16:33:41.540Z,360
2017-05-28T16:34:53.970Z,344
2017-05-28T16:36:07.094Z,336
2017-05-28T16:37:19.032Z,320
2017-05-28T16:38:31.462Z,328
2017-05-28T16:39:43.897Z,324
2017-05-28T16:40:57.020Z,320
2017-05-28T16:42:09.455Z,316
2017-05-28T16:43:21.395Z,320
2017-05-28T16:44:34.323Z,316
2017-05-28T16:45:46.752Z,320
2017-05-28T16:46:59.197Z,320
2017-05-28T16:48:10.670Z,316
2017-05-28T16:49:23.592Z,324
2017-05-28T16:50:36.517Z,344
2017-05-28T16:51:49.441Z,348
2017-05-28T16:53:02.368Z,340
2017-05-28T16:54:15.301Z,328
2017-05-28T16:55:27.732Z,320
2017-05-28T16:56:40.659Z,320
2017-05-28T16:57:53.627Z,304
2017-05-28T16:59:06.157Z,300
2017-05-28T17:00:19.159Z,300
2017-05-28T17:01:31.673Z,304
2017-05-28T17:02:44.381Z,308
2017-05-28T17:03:57.383Z,304